Time;durP1;ratioP1;P1;durP2;ratioP2;P2;SDS_P1;SDS_P2;PMS_P1;PMS_P2;Temp;Humidity;BMP_temperature;BMP_pressure;BME280_temperature;BME280_humidity;BME280_pressure;Samples;Min_cycle;Max_cycle;Signal;HPM_P1;HPM_P2
2022/09/19 00:01:24;;;;;;;5.47;1.15;;;;;;;;;;5007023;28;20061;-78
2022/09/19 00:03:53;;;;;;;3.88;1.20;;;;;;;;;;4995640;28;20050;-78
2022/09/19 00:06:20;;;;;;;3.65;1.52;;;;;;;;;;4995169;28;20046;-80
2022/09/19 00:08:47;;;;;;;4.63;1.20;;;;;;;;;;4992897;28;20133;-78
2022/09/19 00:11:14;;;;;;;8.77;1.77;;;;;;;;;;4994522;28;20266;-80
2022/09/19 00:13:45;;;;;;;4.05;1.20;;;;;;;;;;4993194;28;20050;-80
2022/09/19 00:16:12;;;;;;;6.38;1.40;;;;;;;;;;4995317;28;20466;-79
2022/09/19 00:18:39;;;;;;;4.07;1.35;;;;;;;;;;4975827;28;20042;-78
2022/09/19 00:21:05;;;;;;;5.35;1.75;;;;;;;;;;4994271;28;20050;-80
2022/09/19 00:26:20;;;;;;;4.20;1.30;;;;;;;;;;4994568;28;20050;-79
2022/09/19 00:28:46;;;;;;;3.75;1.38;;;;;;;;;;4992276;28;20466;-81
2022/09/19 00:31:17;;;;;;;3.50;1.50;;;;;;;;;;4994633;28;20053;-80
2022/09/19 00:33:45;;;;;;;4.07;1.52;;;;;;;;;;4992313;28;20450;-79
2022/09/19 00:36:12;;;;;;;6.40;1.30;;;;;;;;;;4994537;28;20084;-80
2022/09/19 00:38:38;;;;;;;4.60;1.33;;;;;;;;;;4993832;28;20050;-79
2022/09/19 00:41:06;;;;;;;9.18;1.42;;;;;;;;;;4976090;28;20149;-79
2022/09/19 00:43:43;;;;;;;5.97;1.40;;;;;;;;;;4975424;28;20156;-77
2022/09/19 00:46:10;;;;;;;3.53;1.40;;;;;;;;;;4994847;28;20046;-79
2022/09/19 00:48:41;;;;;;;5.35;1.73;;;;;;;;;;4994057;28;20054;-79
2022/09/19 00:51:12;;;;;;;5.75;1.50;;;;;;;;;;4976963;28;20062;-81
2022/09/19 00:53:39;;;;;;;4.93;1.33;;;;;;;;;;4994428;28;20058;-78
2022/09/19 00:56:06;;;;;;;2.95;1.30;;;;;;;;;;4976291;28;20138;-78
2022/09/19 00:58:40;;;;;;;5.38;1.52;;;;;;;;;;4992394;28;20054;-80
2022/09/19 01:01:06;;;;;;;6.70;1.60;;;;;;;;;;4995133;28;20046;-80
2022/09/19 01:03:33;;;;;;;4.57;1.90;;;;;;;;;;4992345;28;20126;-79
2022/09/19 01:06:02;;;;;;;9.95;2.15;;;;;;;;;;4993546;28;20050;-80
2022/09/19 01:08:38;;;;;;;4.30;1.70;;;;;;;;;;4993732;28;20054;-80
2022/09/19 01:11:13;;;;;;;11.55;2.67;;;;;;;;;;4996331;28;20053;-79
2022/09/19 01:13:49;;;;;;;4.30;1.80;;;;;;;;;;4994300;28;20524;-80
2022/09/19 01:16:28;;;;;;;8.68;2.03;;;;;;;;;;4995537;28;20053;-80
2022/09/19 01:19:10;;;;;;;9.40;1.85;;;;;;;;;;4993343;28;20092;-80
2022/09/19 01:21:42;;;;;;;5.80;2.00;;;;;;;;;;4976860;28;20050;-79
2022/09/19 01:24:08;;;;;;;9.00;2.10;;;;;;;;;;4993698;28;20057;-79
2022/09/19 01:26:58;;;;;;;7.05;1.90;;;;;;;;;;4993613;28;20062;-80
2022/09/19 01:29:28;;;;;;;12.02;2.35;;;;;;;;;;4990335;28;20050;-80
2022/09/19 01:31:57;;;;;;;10.55;1.98;;;;;;;;;;5009506;28;20056;-79
2022/09/19 01:34:29;;;;;;;7.95;2.10;;;;;;;;;;5001478;28;20104;-79
2022/09/19 01:37:00;;;;;;;6.97;1.70;;;;;;;;;;4994806;28;20064;-79
2022/09/19 01:39:28;;;;;;;8.85;1.95;;;;;;;;;;4991600;28;20705;-79
2022/09/19 01:41:57;;;;;;;8.18;2.20;;;;;;;;;;4993712;28;20272;-79
2022/09/19 01:44:24;;;;;;;3.33;2.08;;;;;;;;;;4991800;28;20053;-79
2022/09/19 01:46:57;;;;;;;6.95;2.30;;;;;;;;;;4992549;28;20053;-79
2022/09/19 01:49:23;;;;;;;8.50;2.35;;;;;;;;;;4973101;28;20050;-79
2022/09/19 01:51:53;;;;;;;7.88;2.67;;;;;;;;;;4993766;28;20114;-79
2022/09/19 01:54:21;;;;;;;9.07;2.50;;;;;;;;;;4992789;28;20069;-79
2022/09/19 01:57:03;;;;;;;8.70;2.70;;;;;;;;;;4992950;28;20137;-79
2022/09/19 01:59:35;;;;;;;5.63;2.25;;;;;;;;;;4989981;28;20396;-80
2022/09/19 02:02:13;;;;;;;5.75;2.65;;;;;;;;;;4992381;28;20076;-78
2022/09/19 02:05:06;;;;;;;6.95;2.58;;;;;;;;;;4974768;28;20042;-79
2022/09/19 02:08:00;;;;;;;5.07;2.42;;;;;;;;;;4990780;28;20047;-80
2022/09/19 02:10:37;;;;;;;9.13;3.17;;;;;;;;;;4989411;28;20047;-80
2022/09/19 02:13:04;;;;;;;10.00;2.97;;;;;;;;;;4991505;28;20418;-79
2022/09/19 02:15:34;;;;;;;6.90;3.03;;;;;;;;;;4992150;28;20049;-80
2022/09/19 02:18:09;;;;;;;7.00;2.67;;;;;;;;;;4973319;28;20173;-77
2022/09/19 02:20:38;;;;;;;13.30;2.80;;;;;;;;;;4973469;28;20585;-80
2022/09/19 02:23:09;;;;;;;9.45;3.50;;;;;;;;;;4972455;28;20058;-80
2022/09/19 02:25:35;;;;;;;10.00;3.60;;;;;;;;;;4956861;28;20050;-80
2022/09/19 02:28:05;;;;;;;9.55;3.30;;;;;;;;;;4972441;28;20051;-80
2022/09/19 02:30:32;;;;;;;5.18;3.35;;;;;;;;;;4972924;28;20062;-80
2022/09/19 02:32:59;;;;;;;10.30;3.53;;;;;;;;;;4972739;28;20061;-80
2022/09/19 02:35:34;;;;;;;6.05;3.22;;;;;;;;;;4972976;28;20058;-81
2022/09/19 02:38:07;;;;;;;10.55;3.80;;;;;;;;;;4973228;28;20051;-79
2022/09/19 02:40:35;;;;;;;9.38;3.60;;;;;;;;;;4974194;28;20049;-80
2022/09/19 02:43:14;;;;;;;11.32;4.30;;;;;;;;;;4972625;28;20062;-79
2022/09/19 02:45:45;;;;;;;11.70;4.60;;;;;;;;;;4973071;28;20047;-79
2022/09/19 02:48:27;;;;;;;11.93;4.13;;;;;;;;;;4971462;28;20105;-79
2022/09/19 02:51:20;;;;;;;10.30;4.55;;;;;;;;;;4967654;28;20062;-80
2022/09/19 02:53:53;;;;;;;8.88;4.00;;;;;;;;;;4989250;28;20058;-79
2022/09/19 02:56:26;;;;;;;6.85;4.80;;;;;;;;;;4991937;28;20065;-78
2022/09/19 02:59:04;;;;;;;7.88;4.18;;;;;;;;;;4992904;28;20046;-78
2022/09/19 03:01:31;;;;;;;8.35;4.43;;;;;;;;;;4995647;28;20046;-78
2022/09/19 03:04:13;;;;;;;5.38;3.72;;;;;;;;;;4995369;28;20054;-78
2022/09/19 03:06:42;;;;;;;9.98;3.88;;;;;;;;;;4996955;28;20053;-78
2022/09/19 03:09:11;;;;;;;5.20;3.28;;;;;;;;;;4979693;28;20211;-79
2022/09/19 03:11:40;;;;;;;6.47;3.90;;;;;;;;;;4997112;28;20047;-78
2022/09/19 03:14:07;;;;;;;6.50;3.53;;;;;;;;;;4994901;28;20058;-78
2022/09/19 03:16:37;;;;;;;15.75;4.32;;;;;;;;;;4997191;28;20061;-79
2022/09/19 03:19:07;;;;;;;10.57;5.20;;;;;;;;;;4997350;28;20129;-77
2022/09/19 03:21:33;;;;;;;12.30;5.18;;;;;;;;;;4997914;28;20062;-78
2022/09/19 03:24:00;;;;;;;11.32;5.68;;;;;;;;;;4979192;28;20047;-77
2022/09/19 03:26:32;;;;;;;8.90;6.00;;;;;;;;;;4996299;28;20064;-77
2022/09/19 03:28:59;;;;;;;11.95;5.75;;;;;;;;;;4994139;28;20046;-78
2022/09/19 03:31:25;;;;;;;10.45;6.03;;;;;;;;;;4995552;28;20141;-77
2022/09/19 03:33:56;;;;;;;7.68;5.55;;;;;;;;;;4994235;28;20054;-78
2022/09/19 03:36:26;;;;;;;11.07;6.78;;;;;;;;;;4995829;28;20054;-77
2022/09/19 03:38:52;;;;;;;12.55;6.93;;;;;;;;;;4995490;28;20047;-77
2022/09/19 03:41:19;;;;;;;13.80;7.32;;;;;;;;;;4994598;28;20046;-78
2022/09/19 03:43:46;;;;;;;14.60;8.45;;;;;;;;;;4992339;28;20061;-78
2022/09/19 03:46:14;;;;;;;12.68;7.90;;;;;;;;;;4975840;28;20309;-78
2022/09/19 03:48:44;;;;;;;16.35;7.97;;;;;;;;;;4993450;28;20054;-79
2022/09/19 03:51:11;;;;;;;10.10;6.80;;;;;;;;;;5005036;28;20617;-78
2022/09/19 03:53:38;;;;;;;13.45;7.50;;;;;;;;;;4996561;28;20058;-78
2022/09/19 03:56:04;;;;;;;11.27;7.20;;;;;;;;;;4994334;28;20058;-79
2022/09/19 03:58:31;;;;;;;13.68;7.38;;;;;;;;;;4991851;28;20057;-79
2022/09/19 04:00:57;;;;;;;14.23;7.55;;;;;;;;;;4993756;28;20054;-78
2022/09/19 04:03:24;;;;;;;17.42;7.97;;;;;;;;;;4994133;28;20050;-78
2022/09/19 04:05:51;;;;;;;14.35;8.07;;;;;;;;;;4979000;28;20193;-79
2022/09/19 04:08:18;;;;;;;13.80;7.80;;;;;;;;;;4976096;28;20058;-78
2022/09/19 04:10:45;;;;;;;14.88;8.10;;;;;;;;;;4996609;28;20088;-78
2022/09/19 04:13:11;;;;;;;14.82;8.20;;;;;;;;;;4994474;28;20054;-78
2022/09/19 04:15:38;;;;;;;15.25;8.38;;;;;;;;;;4993976;28;20057;-76
2022/09/19 04:18:05;;;;;;;13.63;7.88;;;;;;;;;;4990925;28;20061;-75
2022/09/19 04:20:31;;;;;;;14.05;8.32;;;;;;;;;;4991242;28;20047;-76
2022/09/19 04:23:00;;;;;;;16.63;8.43;;;;;;;;;;4992027;28;20046;-75
2022/09/19 04:25:32;;;;;;;13.48;7.80;;;;;;;;;;4993693;28;20419;-79
2022/09/19 04:28:03;;;;;;;15.02;8.80;;;;;;;;;;4994851;28;20046;-79
2022/09/19 04:30:35;;;;;;;14.43;8.80;;;;;;;;;;4979715;28;20050;-78
2022/09/19 04:33:03;;;;;;;16.40;9.82;;;;;;;;;;4996022;28;20046;-78
2022/09/19 04:35:35;;;;;;;17.80;9.55;;;;;;;;;;4994707;28;20414;-79
2022/09/19 04:38:02;;;;;;;19.08;9.73;;;;;;;;;;4994817;28;20054;-77
2022/09/19 04:40:29;;;;;;;15.35;9.93;;;;;;;;;;4996902;28;20054;-76
2022/09/19 04:42:57;;;;;;;17.35;9.85;;;;;;;;;;4994133;28;20386;-78
2022/09/19 04:45:23;;;;;;;18.42;10.88;;;;;;;;;;4995689;28;20057;-78
2022/09/19 04:47:50;;;;;;;18.58;9.38;;;;;;;;;;4994766;28;20161;-78
2022/09/19 04:50:17;;;;;;;16.77;9.55;;;;;;;;;;4976283;28;20054;-78
2022/09/19 04:52:43;;;;;;;16.63;9.40;;;;;;;;;;5003898;28;20049;-79
2022/09/19 04:55:10;;;;;;;14.90;8.65;;;;;;;;;;4984101;28;20050;-79
2022/09/19 04:57:36;;;;;;;17.80;8.90;;;;;;;;;;4995897;28;20060;-79
2022/09/19 05:00:03;;;;;;;15.25;8.98;;;;;;;;;;5016752;28;20042;-78
2022/09/19 05:02:31;;;;;;;20.90;8.80;;;;;;;;;;4995494;28;20046;-79
2022/09/19 05:04:59;;;;;;;15.18;8.88;;;;;;;;;;4995707;28;20590;-78
2022/09/19 05:07:33;;;;;;;15.20;8.90;;;;;;;;;;4999318;28;20038;-78
2022/09/19 05:10:01;;;;;;;14.97;9.33;;;;;;;;;;4996399;28;20046;-78
2022/09/19 05:12:28;;;;;;;18.00;9.52;;;;;;;;;;4993524;28;20062;-77
2022/09/19 05:14:55;;;;;;;14.65;8.60;;;;;;;;;;5000443;28;20061;-76
2022/09/19 05:17:21;;;;;;;21.55;9.55;;;;;;;;;;4997391;28;20450;-78
2022/09/19 05:19:48;;;;;;;18.48;9.50;;;;;;;;;;4993814;28;20054;-78
2022/09/19 05:22:14;;;;;;;18.83;9.15;;;;;;;;;;4995502;28;20050;-78
2022/09/19 05:24:40;;;;;;;18.73;9.88;;;;;;;;;;4993634;28;20490;-78
2022/09/19 05:27:07;;;;;;;18.80;9.13;;;;;;;;;;4993918;28;20050;-78
2022/09/19 05:29:39;;;;;;;14.02;8.50;;;;;;;;;;4976794;28;20072;-77
2022/09/19 05:32:05;;;;;;;15.50;8.48;;;;;;;;;;4996025;28;20070;-78
2022/09/19 05:34:32;;;;;;;14.60;8.45;;;;;;;;;;4995557;28;20490;-78
2022/09/19 05:36:58;;;;;;;17.42;8.65;;;;;;;;;;4996405;28;20061;-77
2022/09/19 05:39:24;;;;;;;18.27;9.90;;;;;;;;;;5008552;28;20056;-79
2022/09/19 05:41:51;;;;;;;15.52;9.32;;;;;;;;;;4981758;28;20424;-78
2022/09/19 05:44:17;;;;;;;17.63;9.57;;;;;;;;;;4997558;28;20046;-78
2022/09/19 05:46:43;;;;;;;17.83;9.40;;;;;;;;;;4994460;28;20157;-80
2022/09/19 05:49:10;;;;;;;18.27;9.15;;;;;;;;;;4990718;28;20518;-79
2022/09/19 05:51:36;;;;;;;14.35;9.70;;;;;;;;;;4990360;28;20533;-79
2022/09/19 05:54:03;;;;;;;13.25;8.43;;;;;;;;;;4992169;28;20046;-79
2022/09/19 05:56:29;;;;;;;13.52;7.63;;;;;;;;;;4992629;28;20054;-79
2022/09/19 05:58:56;;;;;;;17.25;8.38;;;;;;;;;;5008912;28;20060;-79
2022/09/19 06:01:22;;;;;;;16.08;9.10;;;;;;;;;;4992145;28;20052;-80
2022/09/19 06:03:49;;;;;;;15.52;8.25;;;;;;;;;;4986249;28;20502;-78
2022/09/19 06:06:18;;;;;;;13.13;7.55;;;;;;;;;;4969051;28;20052;-81
2022/09/19 06:08:46;;;;;;;9.00;6.07;;;;;;;;;;4992572;28;20047;-80
2022/09/19 06:11:13;;;;;;;10.18;6.72;;;;;;;;;;4975302;28;20062;-80
2022/09/19 06:16:24;;;;;;;15.25;8.57;;;;;;;;;;4993724;28;20042;-81
2022/09/19 06:18:51;;;;;;;12.57;8.32;;;;;;;;;;4991598;28;20566;-80
2022/09/19 06:21:17;;;;;;;13.90;7.93;;;;;;;;;;4994191;28;20046;-78
2022/09/19 06:23:43;;;;;;;12.63;8.27;;;;;;;;;;4977102;28;20708;-79
2022/09/19 06:26:11;;;;;;;14.82;8.80;;;;;;;;;;4994057;28;20442;-78
2022/09/19 06:28:38;;;;;;;16.05;9.63;;;;;;;;;;4993243;28;20050;-79
2022/09/19 06:31:04;;;;;;;23.25;9.77;;;;;;;;;;4994507;28;20051;-80
2022/09/19 06:33:31;;;;;;;14.13;8.95;;;;;;;;;;5001049;28;20052;-80
2022/09/19 06:35:59;;;;;;;15.20;9.15;;;;;;;;;;5005182;28;20046;-77
2022/09/19 06:38:28;;;;;;;15.20;9.73;;;;;;;;;;5014533;28;20058;-79
2022/09/19 06:40:54;;;;;;;15.30;10.77;;;;;;;;;;5011036;28;20034;-78
2022/09/19 06:43:21;;;;;;;13.75;10.57;;;;;;;;;;5015427;28;20034;-79
2022/09/19 06:45:48;;;;;;;14.88;10.25;;;;;;;;;;5015055;28;20114;-79
2022/09/19 06:48:15;;;;;;;14.95;9.02;;;;;;;;;;4999351;28;20113;-78
2022/09/19 06:50:44;;;;;;;11.70;8.23;;;;;;;;;;5000156;28;20044;-77
2022/09/19 06:53:10;;;;;;;14.88;8.60;;;;;;;;;;5016055;28;20030;-78
2022/09/19 06:55:36;;;;;;;13.65;8.75;;;;;;;;;;5014345;28;20257;-81
2022/09/19 06:58:04;;;;;;;12.27;7.15;;;;;;;;;;5014475;28;20117;-80
2022/09/19 07:00:32;;;;;;;9.50;6.57;;;;;;;;;;5016323;28;20114;-79
2022/09/19 07:03:06;;;;;;;14.43;7.47;;;;;;;;;;5017466;28;20050;-78
2022/09/19 07:05:35;;;;;;;10.32;6.55;;;;;;;;;;5016663;28;20030;-78
2022/09/19 07:08:05;;;;;;;10.25;6.75;;;;;;;;;;5015657;28;20121;-80
2022/09/19 07:10:32;;;;;;;12.52;7.20;;;;;;;;;;4997946;28;20609;-80
2022/09/19 07:13:02;;;;;;;13.25;7.45;;;;;;;;;;4999288;28;20076;-81
2022/09/19 07:15:30;;;;;;;10.05;7.30;;;;;;;;;;4998988;28;20162;-81
2022/09/19 07:17:56;;;;;;;9.95;6.43;;;;;;;;;;4979556;28;20043;-79
2022/09/19 07:20:23;;;;;;;13.77;7.35;;;;;;;;;;4997093;28;20046;-80
2022/09/19 07:23:03;;;;;;;9.52;6.28;;;;;;;;;;4998558;28;20042;-80
2022/09/19 07:25:39;;;;;;;8.00;5.32;;;;;;;;;;4998382;28;20076;-79
2022/09/19 07:28:06;;;;;;;7.43;4.85;;;;;;;;;;4995923;28;20051;-79
2022/09/19 07:30:33;;;;;;;7.22;4.50;;;;;;;;;;4980140;28;20057;-80
2022/09/19 07:33:00;;;;;;;7.15;3.92;;;;;;;;;;4980466;28;20058;-80
2022/09/19 07:35:28;;;;;;;6.68;3.28;;;;;;;;;;4980145;28;20162;-80
2022/09/19 07:38:01;;;;;;;6.43;3.08;;;;;;;;;;4997733;28;20058;-78
2022/09/19 07:40:28;;;;;;;4.13;3.40;;;;;;;;;;4996466;28;20054;-78
2022/09/19 07:43:02;;;;;;;3.83;3.00;;;;;;;;;;4996732;28;20077;-78
2022/09/19 07:45:32;;;;;;;4.65;2.80;;;;;;;;;;4996340;28;20061;-79
2022/09/19 07:48:01;;;;;;;6.55;2.88;;;;;;;;;;4995604;28;20498;-77
2022/09/19 07:50:29;;;;;;;6.88;3.25;;;;;;;;;;4995562;28;20065;-79
2022/09/19 07:52:59;;;;;;;4.63;3.85;;;;;;;;;;4996588;28;20061;-78
2022/09/19 07:55:26;;;;;;;6.25;3.90;;;;;;;;;;4997000;28;20057;-80
2022/09/19 07:57:54;;;;;;;5.05;4.05;;;;;;;;;;4996832;28;20162;-80
2022/09/19 08:00:25;;;;;;;4.57;3.50;;;;;;;;;;4996702;28;20138;-79
2022/09/19 08:02:53;;;;;;;6.80;3.90;;;;;;;;;;4997700;28;20410;-78
2022/09/19 08:05:20;;;;;;;4.95;3.22;;;;;;;;;;4997600;28;20042;-79
2022/09/19 08:07:47;;;;;;;4.68;3.20;;;;;;;;;;4998446;28;20469;-79
2022/09/19 08:10:15;;;;;;;3.28;2.55;;;;;;;;;;4997612;28;20065;-79
2022/09/19 08:12:44;;;;;;;4.90;3.15;;;;;;;;;;4998057;28;20050;-78
2022/09/19 08:15:18;;;;;;;4.05;2.70;;;;;;;;;;4997503;28;20054;-79
2022/09/19 08:17:53;;;;;;;6.90;3.80;;;;;;;;;;4998538;28;20105;-79
2022/09/19 08:20:19;;;;;;;6.70;3.28;;;;;;;;;;4996465;28;20513;-81
2022/09/19 08:22:46;;;;;;;4.95;3.28;;;;;;;;;;4979627;28;20046;-79
2022/09/19 08:25:12;;;;;;;6.15;3.00;;;;;;;;;;5007672;28;20129;-78
2022/09/19 08:27:42;;;;;;;5.32;3.15;;;;;;;;;;5013511;28;20042;-77
2022/09/19 08:30:09;;;;;;;5.35;3.60;;;;;;;;;;5007906;28;20042;-81
2022/09/19 08:32:35;;;;;;;4.07;3.20;;;;;;;;;;4996231;28;20057;-79
2022/09/19 08:35:02;;;;;;;5.82;4.22;;;;;;;;;;4996806;28;20046;-79
2022/09/19 08:37:28;;;;;;;5.93;4.00;;;;;;;;;;5012506;28;20098;-79
2022/09/19 08:42:49;;;;;;;6.75;3.28;;;;;;;;;;5000469;28;20043;-80
2022/09/19 08:45:23;;;;;;;5.57;2.97;;;;;;;;;;5001191;28;20383;-80
2022/09/19 08:47:50;;;;;;;3.85;2.50;;;;;;;;;;4979902;28;20046;-80
2022/09/19 08:50:20;;;;;;;4.43;2.85;;;;;;;;;;4981315;28;20050;-81
2022/09/19 08:52:48;;;;;;;5.32;2.65;;;;;;;;;;4994372;28;20434;-80
2022/09/19 08:55:23;;;;;;;5.40;2.80;;;;;;;;;;4978088;28;20141;-79
2022/09/19 08:58:00;;;;;;;5.95;3.13;;;;;;;;;;4994500;28;20046;-80
2022/09/19 09:00:30;;;;;;;4.15;2.40;;;;;;;;;;4976794;28;20056;-80
2022/09/19 09:02:59;;;;;;;3.13;2.47;;;;;;;;;;4977462;28;20042;-81
2022/09/19 09:05:42;;;;;;;6.40;2.03;;;;;;;;;;4995249;28;20054;-79
2022/09/19 09:08:14;;;;;;;4.20;2.00;;;;;;;;;;4995696;28;20065;-80
2022/09/19 09:10:55;;;;;;;3.95;2.28;;;;;;;;;;4996376;28;20054;-81
2022/09/19 09:13:24;;;;;;;5.80;2.60;;;;;;;;;;4993627;28;20498;-78
2022/09/19 09:16:23;;;;;;;4.20;2.17;;;;;;;;;;4996603;28;20050;-80
2022/09/19 09:18:59;;;;;;;5.07;2.08;;;;;;;;;;4978609;28;20057;-81
2022/09/19 09:21:49;;;;;;;6.43;1.92;;;;;;;;;;4996275;28;20078;-79
2022/09/19 09:24:27;;;;;;;7.07;1.80;;;;;;;;;;4995492;28;20057;-78
2022/09/19 09:27:03;;;;;;;3.45;1.85;;;;;;;;;;4995270;28;20061;-79
2022/09/19 09:29:35;;;;;;;5.72;1.80;;;;;;;;;;4993909;28;20053;-80
2022/09/19 09:32:07;;;;;;;5.00;1.95;;;;;;;;;;4994608;28;20051;-80
2022/09/19 09:34:40;;;;;;;3.38;1.88;;;;;;;;;;4994019;28;20046;-80
2022/09/19 09:37:14;;;;;;;7.55;2.35;;;;;;;;;;4996163;28;20458;-80
2022/09/19 09:40:01;;;;;;;2.70;1.80;;;;;;;;;;4995168;28;20043;-80
2022/09/19 09:42:34;;;;;;;4.68;1.70;;;;;;;;;;4996540;28;20173;-80
2022/09/19 09:45:03;;;;;;;2.97;1.88;;;;;;;;;;4996489;28;20053;-80
2022/09/19 09:47:49;;;;;;;2.25;1.70;;;;;;;;;;4995322;28;20046;-79
2022/09/19 09:50:39;;;;;;;5.55;1.80;;;;;;;;;;4976163;28;20042;-80
2022/09/19 09:53:14;;;;;;;8.32;1.80;;;;;;;;;;4994757;28;20053;-79
2022/09/19 09:58:26;;;;;;;1.83;1.30;;;;;;;;;;4989717;28;20088;-80
2022/09/19 10:03:49;;;;;;;4.35;1.45;;;;;;;;;;4992039;28;20046;-79
2022/09/19 10:06:35;;;;;;;3.53;1.55;;;;;;;;;;4984477;28;20690;-79
2022/09/19 10:09:04;;;;;;;2.13;1.40;;;;;;;;;;4991934;28;20038;-79
2022/09/19 10:11:35;;;;;;;4.05;1.60;;;;;;;;;;4995222;28;20051;-79
2022/09/19 10:14:23;;;;;;;1.92;1.50;;;;;;;;;;4994793;28;20050;-77
2022/09/19 10:16:52;;;;;;;7.80;1.83;;;;;;;;;;4996482;28;20066;-79
2022/09/19 10:19:19;;;;;;;6.53;1.45;;;;;;;;;;4984756;28;20053;-78
2022/09/19 10:21:47;;;;;;;4.35;1.50;;;;;;;;;;4993514;28;20065;-80
2022/09/19 10:24:31;;;;;;;4.47;1.48;;;;;;;;;;4993223;28;20852;-79
2022/09/19 10:27:00;;;;;;;3.42;1.60;;;;;;;;;;4999822;28;20153;-78
2022/09/19 10:29:26;;;;;;;3.38;1.27;;;;;;;;;;5002887;28;20050;-78
2022/09/19 10:31:57;;;;;;;5.82;1.40;;;;;;;;;;5003555;28;20060;-79
2022/09/19 10:34:27;;;;;;;5.70;1.38;;;;;;;;;;5000590;28;20111;-78
2022/09/19 10:37:00;;;;;;;4.80;1.42;;;;;;;;;;4990133;28;20062;-80
2022/09/19 10:39:30;;;;;;;5.38;1.63;;;;;;;;;;4974240;28;20052;-78
2022/09/19 10:41:56;;;;;;;3.10;1.30;;;;;;;;;;5009020;28;20048;-80
2022/09/19 10:44:23;;;;;;;5.78;1.60;;;;;;;;;;5004394;28;20042;-77
2022/09/19 10:46:54;;;;;;;2.50;1.75;;;;;;;;;;4989730;28;20051;-79
2022/09/19 10:49:25;;;;;;;3.30;1.63;;;;;;;;;;4992179;28;20057;-79
2022/09/19 10:51:55;;;;;;;3.65;1.50;;;;;;;;;;4992893;28;20046;-78
2022/09/19 10:54:40;;;;;;;2.00;1.00;;;;;;;;;;4974444;28;20177;-78
2022/09/19 10:57:45;;;;;;;5.80;1.70;;;;;;;;;;4992741;28;20054;-79
2022/09/19 11:00:24;;;;;;;5.25;1.80;;;;;;;;;;4930530;29;20191;-79
2022/09/19 11:03:05;;;;;;;7.65;2.47;;;;;;;;;;4931998;29;20263;-79
2022/09/19 11:05:33;;;;;;;2.22;1.20;;;;;;;;;;4974388;28;20525;-78
2022/09/19 11:08:00;;;;;;;1.83;1.02;;;;;;;;;;4991698;28;20085;-80
2022/09/19 11:10:33;;;;;;;2.58;0.80;;;;;;;;;;4991071;28;20050;-78
2022/09/19 11:13:13;;;;;;;1.45;0.60;;;;;;;;;;4995694;28;20061;-78
2022/09/19 11:15:50;;;;;;;2.25;0.90;;;;;;;;;;5010232;28;20064;-79
2022/09/19 11:18:26;;;;;;;2.38;0.70;;;;;;;;;;5003319;28;20057;-78
2022/09/19 11:21:07;;;;;;;2.15;0.77;;;;;;;;;;4995079;28;20050;-79
2022/09/19 11:23:34;;;;;;;2.72;0.80;;;;;;;;;;4997883;28;20109;-78
2022/09/19 11:26:08;;;;;;;1.40;0.50;;;;;;;;;;4998089;28;20046;-81
2022/09/19 11:28:38;;;;;;;4.22;1.00;;;;;;;;;;4995777;28;20050;-79
2022/09/19 11:31:07;;;;;;;3.90;0.90;;;;;;;;;;4996483;28;20077;-78
2022/09/19 11:33:38;;;;;;;1.88;1.30;;;;;;;;;;4996799;28;20046;-78
2022/09/19 11:36:27;;;;;;;5.60;1.08;;;;;;;;;;4995551;28;20136;-79
2022/09/19 11:39:12;;;;;;;2.10;1.02;;;;;;;;;;4997831;28;20050;-79
2022/09/19 11:42:07;;;;;;;4.25;1.50;;;;;;;;;;4997623;28;20042;-78
2022/09/19 11:44:43;;;;;;;3.25;1.30;;;;;;;;;;4997118;28;20046;-78
2022/09/19 11:47:22;;;;;;;2.75;1.20;;;;;;;;;;4983118;28;20057;-79
2022/09/19 11:49:54;;;;;;;2.15;1.17;;;;;;;;;;5000780;28;20109;-81
2022/09/19 11:52:26;;;;;;;4.55;1.42;;;;;;;;;;5003782;28;20046;-81
2022/09/19 11:55:02;;;;;;;2.08;0.80;;;;;;;;;;5014730;28;20081;-81
2022/09/19 11:57:30;;;;;;;;;;;;;;;;;;5017652;28;20065;-80
2022/09/19 12:00:00;;;;;;;2.08;0.60;;;;;;;;;;4983957;28;19922;-81
2022/09/19 12:02:46;;;;;;;1.17;0.50;;;;;;;;;;4996942;28;20437;-78
2022/09/19 12:05:27;;;;;;;1.98;0.60;;;;;;;;;;4997480;28;20050;-80
2022/09/19 12:07:57;;;;;;;2.00;0.60;;;;;;;;;;4982380;28;20048;-82
2022/09/19 12:10:25;;;;;;;2.20;0.55;;;;;;;;;;4980481;28;20081;-80
2022/09/19 12:12:58;;;;;;;2.65;0.60;;;;;;;;;;4998636;28;20061;-78
2022/09/19 12:15:29;;;;;;;2.22;0.90;;;;;;;;;;4998030;28;20514;-80
2022/09/19 12:18:01;;;;;;;6.50;0.95;;;;;;;;;;4996421;28;20395;-80
2022/09/19 12:20:33;;;;;;;2.47;1.05;;;;;;;;;;4996179;28;20054;-78
2022/09/19 12:26:06;;;;;;;2.60;0.63;;;;;;;;;;4996136;28;20499;-79
2022/09/19 12:28:35;;;;;;;2.30;0.75;;;;;;;;;;4977639;28;20525;-78
2022/09/19 12:31:04;;;;;;;5.20;0.80;;;;;;;;;;4995331;28;20081;-78
2022/09/19 12:33:49;;;;;;;1.38;0.70;;;;;;;;;;4995333;28;20092;-78
2022/09/19 12:36:20;;;;;;;7.78;1.08;;;;;;;;;;4996008;28;20089;-79
2022/09/19 12:38:51;;;;;;;3.40;0.85;;;;;;;;;;4994829;28;20132;-80
2022/09/19 12:41:20;;;;;;;2.35;0.90;;;;;;;;;;4995281;28;20047;-79
2022/09/19 12:44:03;;;;;;;4.65;1.00;;;;;;;;;;4995939;28;20069;-80
2022/09/19 12:46:31;;;;;;;2.55;0.90;;;;;;;;;;4994404;28;20093;-78
2022/09/19 12:49:01;;;;;;;4.13;1.10;;;;;;;;;;4976116;28;20132;-79
2022/09/19 12:51:34;;;;;;;3.20;0.80;;;;;;;;;;4977026;28;20061;-79
2022/09/19 12:54:25;;;;;;;6.07;0.93;;;;;;;;;;4995174;28;20060;-80
2022/09/19 12:57:00;;;;;;;4.03;0.93;;;;;;;;;;4989815;28;20068;-79
2022/09/19 12:59:27;;;;;;;;;;;;;;;;;;4975528;28;20589;-80
2022/09/19 13:01:57;;;;;;;2.03;0.98;;;;;;;;;;4994899;28;19921;-80
2022/09/19 13:04:25;;;;;;;3.33;0.90;;;;;;;;;;4976391;28;20043;-79
2022/09/19 13:06:53;;;;;;;4.40;1.00;;;;;;;;;;4994168;28;20050;-80
2022/09/19 13:09:27;;;;;;;1.60;0.70;;;;;;;;;;4994617;28;20052;-81
2022/09/19 13:12:04;;;;;;;2.05;0.70;;;;;;;;;;4999053;28;20042;-80
2022/09/19 13:14:33;;;;;;;2.67;0.70;;;;;;;;;;4988077;28;20050;-80
2022/09/19 13:25:36;;;;;;;1.38;0.50;;;;;;;;;;4936912;29;20034;-80
2022/09/19 13:28:23;;;;;;;1.92;0.43;;;;;;;;;;4935261;29;20720;-80
2022/09/19 13:30:51;;;;;;;0.85;0.30;;;;;;;;;;4979506;28;20049;-80
2022/09/19 13:33:22;;;;;;;4.68;0.70;;;;;;;;;;5005709;28;20056;-79
2022/09/19 13:35:50;;;;;;;2.55;0.63;;;;;;;;;;5001014;28;20047;-80
2022/09/19 13:38:35;;;;;;;1.63;0.50;;;;;;;;;;4993204;28;20076;-78
2022/09/19 13:41:05;;;;;;;2.60;0.70;;;;;;;;;;4999742;28;20058;-78
2022/09/19 13:43:52;;;;;;;2.78;0.77;;;;;;;;;;4981324;28;20053;-80
2022/09/19 13:46:39;;;;;;;2.97;0.70;;;;;;;;;;4998950;28;20168;-79
2022/09/19 13:49:07;;;;;;;3.78;0.80;;;;;;;;;;4977690;28;20151;-78
2022/09/19 13:51:33;;;;;;;3.75;0.95;;;;;;;;;;4996285;28;20046;-81
2022/09/19 13:54:29;;;;;;;3.28;0.70;;;;;;;;;;5000152;28;20077;-79
2022/09/19 13:57:01;;;;;;;1.30;0.73;;;;;;;;;;4995503;28;20054;-79
2022/09/19 13:59:35;;;;;;;1.88;0.60;;;;;;;;;;4996778;28;20054;-79
2022/09/19 14:02:10;;;;;;;1.65;0.68;;;;;;;;;;4986202;28;20084;-81
2022/09/19 14:04:55;;;;;;;3.58;0.50;;;;;;;;;;4987496;28;20547;-77
2022/09/19 14:07:28;;;;;;;2.92;0.65;;;;;;;;;;4971018;28;20046;-81
2022/09/19 14:10:14;;;;;;;2.15;0.60;;;;;;;;;;4989985;28;20050;-81
2022/09/19 14:12:45;;;;;;;2.08;0.70;;;;;;;;;;4999526;28;20112;-80
2022/09/19 14:15:29;;;;;;;1.80;0.80;;;;;;;;;;4990433;28;20050;-81
2022/09/19 14:18:08;;;;;;;1.50;0.60;;;;;;;;;;4984829;28;20086;-80
2022/09/19 14:20:47;;;;;;;1.48;0.60;;;;;;;;;;4988464;28;20057;-80
2022/09/19 14:23:15;;;;;;;3.75;0.95;;;;;;;;;;5005638;28;20050;-80
2022/09/19 14:26:01;;;;;;;2.35;0.75;;;;;;;;;;4990752;28;20053;-81
2022/09/19 14:28:49;;;;;;;2.60;0.60;;;;;;;;;;4990508;28;20062;-81
2022/09/19 14:31:21;;;;;;;3.53;0.80;;;;;;;;;;4996918;28;20495;-81
2022/09/19 14:33:57;;;;;;;1.52;0.70;;;;;;;;;;4989100;28;20046;-81
2022/09/19 14:36:27;;;;;;;1.98;0.80;;;;;;;;;;4993068;28;20058;-78
2022/09/19 14:39:12;;;;;;;2.17;0.50;;;;;;;;;;4994573;28;20056;-81
2022/09/19 14:41:45;;;;;;;1.85;0.57;;;;;;;;;;4995663;28;20050;-80
2022/09/19 14:44:52;;;;;;;3.38;0.70;;;;;;;;;;4980551;28;20061;-82
2022/09/19 14:47:35;;;;;;;4.30;0.77;;;;;;;;;;4960101;28;20053;-78
2022/09/19 14:50:18;;;;;;;1.17;0.60;;;;;;;;;;4976695;28;20046;-79
2022/09/19 14:52:59;;;;;;;3.17;0.65;;;;;;;;;;4999925;28;20050;-80
2022/09/19 14:55:27;;;;;;;4.05;0.80;;;;;;;;;;4981608;28;20058;-81
2022/09/19 14:57:54;;;;;;;5.47;0.70;;;;;;;;;;5003727;28;20137;-80
2022/09/19 15:00:27;;;;;;;6.70;0.90;;;;;;;;;;5000668;28;20426;-81
2022/09/19 15:02:54;;;;;;;3.92;0.98;;;;;;;;;;4989027;28;20052;-81
2022/09/19 15:05:24;;;;;;;2.78;1.05;;;;;;;;;;5002015;28;20102;-79
2022/09/19 15:07:50;;;;;;;4.55;1.10;;;;;;;;;;4983513;28;20054;-79
2022/09/19 15:10:34;;;;;;;2.17;0.70;;;;;;;;;;4984795;28;20526;-80
2022/09/19 15:13:15;;;;;;;2.53;0.57;;;;;;;;;;4988022;28;20065;-79
2022/09/19 15:15:46;;;;;;;1.02;0.50;;;;;;;;;;4999408;28;20058;-79
2022/09/19 15:18:20;;;;;;;1.50;0.40;;;;;;;;;;5011292;28;20631;-78
2022/09/19 15:20:50;;;;;;;2.83;0.57;;;;;;;;;;5025151;28;20050;-78
2022/09/19 15:23:17;;;;;;;0.95;0.50;;;;;;;;;;5038815;28;20129;-81
2022/09/19 15:25:44;;;;;;;2.17;0.52;;;;;;;;;;4989251;28;20060;-80
2022/09/19 15:28:22;;;;;;;3.80;0.50;;;;;;;;;;5003450;28;20425;-80
2022/09/19 15:30:49;;;;;;;3.55;0.70;;;;;;;;;;5001077;28;20529;-80
2022/09/19 15:33:18;;;;;;;2.38;0.82;;;;;;;;;;5008163;28;20050;-78